Time;durP1;ratioP1;P1;durP2;ratioP2;P2;SDS_P1;SDS_P2;PMS_P1;PMS_P2;Temp;Humidity;BMP_temperature;BMP_pressure;BME280_temperature;BME280_humidity;BME280_pressure;Samples;Min_cycle;Max_cycle;Signal;HPM_P1;HPM_P2
2023/08/21 00:01:23;;;;;;;2.08;1.00;;;;;;;;;;4989113;28;20038;-61
2023/08/21 00:03:49;;;;;;;2.25;0.88;;;;;;;;;;4988959;28;20025;-61
2023/08/21 00:06:15;;;;;;;2.88;0.90;;;;;;;;;;4988479;28;20100;-61
2023/08/21 00:08:41;;;;;;;0.70;0.60;;;;;;;;;;4985900;28;20072;-61
2023/08/21 00:11:07;;;;;;;1.88;0.80;;;;;;;;;;4988227;28;20058;-61
2023/08/21 00:13:33;;;;;;;1.33;0.60;;;;;;;;;;4987731;28;20042;-61
2023/08/21 00:16:00;;;;;;;2.15;0.60;;;;;;;;;;4986946;28;20084;-61
2023/08/21 00:18:26;;;;;;;2.78;0.75;;;;;;;;;;4989609;28;20060;-61
2023/08/21 00:20:52;;;;;;;2.63;1.00;;;;;;;;;;4988560;28;20030;-61
2023/08/21 00:23:18;;;;;;;2.15;0.90;;;;;;;;;;4989713;28;20030;-61
2023/08/21 00:25:48;;;;;;;1.60;0.80;;;;;;;;;;4985967;28;20106;-61
2023/08/21 00:28:14;;;;;;;2.55;1.08;;;;;;;;;;4989536;28;20040;-61
2023/08/21 00:30:41;;;;;;;2.25;0.77;;;;;;;;;;4988900;28;20131;-61
2023/08/21 00:33:07;;;;;;;2.33;0.80;;;;;;;;;;4989636;28;20033;-61
2023/08/21 00:35:33;;;;;;;0.90;0.60;;;;;;;;;;4988842;28;20108;-61
2023/08/21 00:37:59;;;;;;;0.90;0.50;;;;;;;;;;4987707;28;20065;-61
2023/08/21 00:40:25;;;;;;;1.38;0.70;;;;;;;;;;4989836;28;20042;-61
2023/08/21 00:42:51;;;;;;;1.02;0.70;;;;;;;;;;4988866;28;20105;-61
2023/08/21 00:45:17;;;;;;;3.20;0.80;;;;;;;;;;4989629;28;20107;-61
2023/08/21 00:47:43;;;;;;;0.93;0.50;;;;;;;;;;4988627;28;20565;-61
2023/08/21 00:50:11;;;;;;;1.88;0.68;;;;;;;;;;4989079;28;20037;-61
2023/08/21 00:52:39;;;;;;;1.15;0.70;;;;;;;;;;4988372;28;20018;-61
2023/08/21 00:55:05;;;;;;;0.77;0.50;;;;;;;;;;4988369;28;20033;-62
2023/08/21 00:57:32;;;;;;;1.35;0.68;;;;;;;;;;4988970;28;20038;-61
2023/08/21 01:00:01;;;;;;;1.90;0.90;;;;;;;;;;4987533;28;20042;-61
2023/08/21 01:02:27;;;;;;;3.17;0.90;;;;;;;;;;4987821;28;20049;-61
2023/08/21 01:04:53;;;;;;;1.83;0.90;;;;;;;;;;4991796;28;20025;-61
2023/08/21 01:07:19;;;;;;;1.10;0.57;;;;;;;;;;4991853;28;20551;-61
2023/08/21 01:10:09;;;;;;;1.85;0.77;;;;;;;;;;4991452;28;20034;-61
2023/08/21 01:12:50;;;;;;;3.10;1.23;;;;;;;;;;4990902;28;21856;-61
2023/08/21 01:15:17;;;;;;;0.52;0.50;;;;;;;;;;4991338;28;20148;-61
2023/08/21 01:17:44;;;;;;;1.30;0.68;;;;;;;;;;4991691;28;20093;-61
2023/08/21 01:20:10;;;;;;;1.52;0.80;;;;;;;;;;4991238;28;20033;-61
2023/08/21 01:22:40;;;;;;;1.00;0.50;;;;;;;;;;4989957;28;20029;-61
2023/08/21 01:25:07;;;;;;;1.52;0.70;;;;;;;;;;4990078;28;20117;-61
2023/08/21 01:27:36;;;;;;;0.73;0.43;;;;;;;;;;4990030;28;20069;-61
2023/08/21 01:30:03;;;;;;;1.70;0.40;;;;;;;;;;4989935;28;20026;-61
2023/08/21 01:32:40;;;;;;;0.73;0.40;;;;;;;;;;4990285;28;20030;-61
2023/08/21 01:35:07;;;;;;;3.03;0.80;;;;;;;;;;4990878;28;20597;-61
2023/08/21 01:37:33;;;;;;;14.50;1.10;;;;;;;;;;4981274;28;20401;-61
2023/08/21 01:39:59;;;;;;;10.70;0.88;;;;;;;;;;4990869;28;20028;-61
2023/08/21 01:42:25;;;;;;;3.45;0.98;;;;;;;;;;4991754;28;20033;-61
2023/08/21 01:44:51;;;;;;;3.35;1.20;;;;;;;;;;4991490;28;20038;-61
2023/08/21 01:47:17;;;;;;;2.00;0.82;;;;;;;;;;4991001;28;20571;-61
2023/08/21 01:49:43;;;;;;;1.33;0.82;;;;;;;;;;4991100;28;20036;-61
2023/08/21 01:52:10;;;;;;;2.05;1.20;;;;;;;;;;4991766;28;20140;-61
2023/08/21 01:54:36;;;;;;;1.55;0.90;;;;;;;;;;4992387;28;20113;-61
2023/08/21 01:57:03;;;;;;;1.55;0.85;;;;;;;;;;4992212;28;20147;-61
2023/08/21 01:59:29;;;;;;;1.88;0.90;;;;;;;;;;4991426;28;20064;-61
2023/08/21 02:01:55;;;;;;;3.33;1.08;;;;;;;;;;4989886;28;20844;-61
2023/08/21 02:04:21;;;;;;;2.25;1.05;;;;;;;;;;4989173;28;20034;-61
2023/08/21 02:06:47;;;;;;;2.53;1.10;;;;;;;;;;4990038;28;20044;-61
2023/08/21 02:09:13;;;;;;;1.40;0.75;;;;;;;;;;4973634;28;20048;-61
2023/08/21 02:11:39;;;;;;;1.38;0.73;;;;;;;;;;4990205;28;20826;-61
2023/08/21 02:14:05;;;;;;;1.83;0.68;;;;;;;;;;4990846;28;20168;-61
2023/08/21 02:16:31;;;;;;;2.00;0.90;;;;;;;;;;4990332;28;20034;-61
2023/08/21 02:18:57;;;;;;;1.50;0.68;;;;;;;;;;4991913;28;20037;-61
2023/08/21 02:21:24;;;;;;;1.55;1.10;;;;;;;;;;4991056;28;20116;-61
2023/08/21 02:23:50;;;;;;;2.28;0.88;;;;;;;;;;4990313;28;20032;-61
2023/08/21 02:26:16;;;;;;;1.20;0.50;;;;;;;;;;4990473;28;20049;-61
2023/08/21 02:28:43;;;;;;;10.60;1.00;;;;;;;;;;4989211;28;20908;-61
2023/08/21 02:31:10;;;;;;;37.45;2.10;;;;;;;;;;4989143;28;20518;-61
2023/08/21 02:33:36;;;;;;;7.60;0.88;;;;;;;;;;4989316;28;20124;-61
2023/08/21 02:36:03;;;;;;;15.35;1.10;;;;;;;;;;4979179;28;20116;-61
2023/08/21 02:38:29;;;;;;;8.65;0.90;;;;;;;;;;4990740;28;20045;-61
2023/08/21 02:40:55;;;;;;;2.95;0.90;;;;;;;;;;4972522;28;20066;-61
2023/08/21 02:43:21;;;;;;;23.85;1.48;;;;;;;;;;4990894;28;20108;-61
2023/08/21 02:45:47;;;;;;;28.08;1.63;;;;;;;;;;4990638;28;20030;-61
2023/08/21 02:48:13;;;;;;;17.00;1.27;;;;;;;;;;4990667;28;20033;-61
2023/08/21 02:50:41;;;;;;;3.80;1.13;;;;;;;;;;4990920;28;20036;-62
2023/08/21 02:53:07;;;;;;;9.45;1.42;;;;;;;;;;4991517;28;20492;-61
2023/08/21 02:55:33;;;;;;;2.65;1.20;;;;;;;;;;4989447;28;20580;-61
2023/08/21 02:57:59;;;;;;;1.55;0.75;;;;;;;;;;4991116;28;20660;-61
2023/08/21 03:00:25;;;;;;;3.28;0.80;;;;;;;;;;4990546;28;20087;-61
2023/08/21 03:02:51;;;;;;;4.68;1.02;;;;;;;;;;4989771;28;20722;-61
2023/08/21 03:05:17;;;;;;;4.88;1.25;;;;;;;;;;4990837;28;20037;-61
2023/08/21 03:07:44;;;;;;;2.80;0.93;;;;;;;;;;4990513;28;20030;-61
2023/08/21 03:10:10;;;;;;;6.28;1.63;;;;;;;;;;4990286;28;20168;-61
2023/08/21 03:12:36;;;;;;;4.55;1.48;;;;;;;;;;4990790;28;20112;-61
2023/08/21 03:15:02;;;;;;;2.75;1.38;;;;;;;;;;4988197;28;20044;-61
2023/08/21 03:17:28;;;;;;;7.68;1.55;;;;;;;;;;4990332;28;21682;-61
2023/08/21 03:19:55;;;;;;;4.13;1.25;;;;;;;;;;4989010;28;20041;-61
2023/08/21 03:22:21;;;;;;;2.72;0.90;;;;;;;;;;4991287;28;21092;-61
2023/08/21 03:24:47;;;;;;;4.32;1.05;;;;;;;;;;4989106;28;20029;-61
2023/08/21 03:27:16;;;;;;;3.08;1.10;;;;;;;;;;4988088;28;20780;-61
2023/08/21 03:29:48;;;;;;;3.88;1.20;;;;;;;;;;4988396;28;20042;-61
2023/08/21 03:32:14;;;;;;;2.28;1.10;;;;;;;;;;4987903;28;20069;-61
2023/08/21 03:34:40;;;;;;;5.70;1.67;;;;;;;;;;4987553;28;20061;-61
2023/08/21 03:37:06;;;;;;;4.70;1.67;;;;;;;;;;4988581;28;20061;-61
2023/08/21 03:39:32;;;;;;;3.58;1.30;;;;;;;;;;4988989;28;20495;-61
2023/08/21 03:41:58;;;;;;;2.88;1.42;;;;;;;;;;4989699;28;20026;-61
2023/08/21 03:44:25;;;;;;;2.45;1.33;;;;;;;;;;4988589;28;20042;-61
2023/08/21 03:46:51;;;;;;;2.78;1.33;;;;;;;;;;4977544;28;20065;-61
2023/08/21 03:49:17;;;;;;;3.50;1.58;;;;;;;;;;4987921;28;20037;-62
2023/08/21 03:51:43;;;;;;;4.07;1.92;;;;;;;;;;4973126;28;20838;-61
2023/08/21 03:54:09;;;;;;;4.60;1.70;;;;;;;;;;4961777;28;20467;-61
2023/08/21 03:56:36;;;;;;;8.73;1.75;;;;;;;;;;4989361;28;20037;-61
2023/08/21 03:59:02;;;;;;;7.35;1.50;;;;;;;;;;4989296;28;20611;-61
2023/08/21 04:01:28;;;;;;;3.67;1.50;;;;;;;;;;4990056;28;20080;-61
2023/08/21 04:03:54;;;;;;;3.10;1.30;;;;;;;;;;4989337;28;20056;-61
2023/08/21 04:06:20;;;;;;;4.03;1.50;;;;;;;;;;4988789;28;20030;-61
2023/08/21 04:08:46;;;;;;;3.05;1.30;;;;;;;;;;4989691;28;20568;-61
2023/08/21 04:11:12;;;;;;;2.88;1.45;;;;;;;;;;5002006;28;20461;-61
2023/08/21 04:13:38;;;;;;;3.58;1.52;;;;;;;;;;5008261;28;20474;-61
2023/08/21 04:16:04;;;;;;;3.53;1.27;;;;;;;;;;5008127;28;20942;-61
2023/08/21 04:18:30;;;;;;;2.33;1.13;;;;;;;;;;5009045;28;21282;-61
2023/08/21 04:20:56;;;;;;;4.45;1.10;;;;;;;;;;5010250;28;20491;-61
2023/08/21 04:23:22;;;;;;;6.57;1.25;;;;;;;;;;5009915;28;20818;-61
2023/08/21 04:25:48;;;;;;;3.70;1.00;;;;;;;;;;4981405;28;20026;-61
2023/08/21 04:28:14;;;;;;;5.55;1.05;;;;;;;;;;5006724;28;20065;-61
2023/08/21 04:30:42;;;;;;;2.45;1.10;;;;;;;;;;5009038;28;20037;-61
2023/08/21 04:33:08;;;;;;;4.93;1.73;;;;;;;;;;4996966;28;20122;-61
2023/08/21 04:35:38;;;;;;;3.47;1.30;;;;;;;;;;5007858;28;20048;-61
2023/08/21 04:38:04;;;;;;;3.10;1.33;;;;;;;;;;5008376;28;20033;-61
2023/08/21 04:40:30;;;;;;;1.77;1.02;;;;;;;;;;5007511;28;20072;-61
2023/08/21 04:42:56;;;;;;;1.40;0.90;;;;;;;;;;4991341;28;20115;-61
2023/08/21 04:45:22;;;;;;;4.00;1.23;;;;;;;;;;5008093;28;20079;-61
2023/08/21 04:47:49;;;;;;;2.08;1.30;;;;;;;;;;5008295;28;20727;-61
2023/08/21 04:50:15;;;;;;;2.60;1.13;;;;;;;;;;5008211;28;20038;-61
2023/08/21 04:52:41;;;;;;;2.38;1.10;;;;;;;;;;5009103;28;20115;-61
2023/08/21 04:55:08;;;;;;;1.55;1.10;;;;;;;;;;5007292;28;20033;-61
2023/08/21 04:57:34;;;;;;;2.28;0.80;;;;;;;;;;5008964;28;20036;-61
2023/08/21 05:00:00;;;;;;;2.65;0.82;;;;;;;;;;5009003;28;20044;-61
2023/08/21 05:02:26;;;;;;;3.10;1.00;;;;;;;;;;5008338;28;20040;-61
2023/08/21 05:04:52;;;;;;;4.47;1.30;;;;;;;;;;5008833;28;20163;-62
2023/08/21 05:07:18;;;;;;;3.00;1.38;;;;;;;;;;5008661;28;20166;-66
2023/08/21 05:09:44;;;;;;;4.18;1.40;;;;;;;;;;5005917;28;20059;-66
2023/08/21 05:12:10;;;;;;;3.38;1.27;;;;;;;;;;4989057;28;20062;-66
2023/08/21 05:14:36;;;;;;;3.13;1.27;;;;;;;;;;4988804;28;20045;-66
2023/08/21 05:17:03;;;;;;;2.83;1.17;;;;;;;;;;4989038;28;21117;-66
2023/08/21 05:19:29;;;;;;;3.47;1.33;;;;;;;;;;4988817;28;20108;-65
2023/08/21 05:21:55;;;;;;;4.30;2.00;;;;;;;;;;4989071;28;20092;-66
2023/08/21 05:24:21;;;;;;;2.80;1.50;;;;;;;;;;4989700;28;20041;-65
2023/08/21 05:26:47;;;;;;;1.90;1.08;;;;;;;;;;4988283;28;20037;-66
2023/08/21 05:29:13;;;;;;;1.17;0.90;;;;;;;;;;4989354;28;20045;-66
2023/08/21 05:31:42;;;;;;;8.10;1.88;;;;;;;;;;4988919;28;20030;-66
2023/08/21 05:34:09;;;;;;;2.10;1.00;;;;;;;;;;4988852;28;20112;-66
2023/08/21 05:36:35;;;;;;;4.40;1.10;;;;;;;;;;4986689;28;20033;-66
2023/08/21 05:39:05;;;;;;;2.67;1.10;;;;;;;;;;4986516;28;20036;-67
2023/08/21 05:41:31;;;;;;;5.43;1.73;;;;;;;;;;4987038;28;20026;-66
2023/08/21 05:43:57;;;;;;;3.60;1.30;;;;;;;;;;4987866;28;20025;-66
2023/08/21 05:46:23;;;;;;;6.75;1.48;;;;;;;;;;4987855;28;20652;-66
2023/08/21 05:48:49;;;;;;;5.72;1.23;;;;;;;;;;4987731;28;20938;-66
2023/08/21 05:51:15;;;;;;;4.35;1.90;;;;;;;;;;4990723;28;21687;-65
2023/08/21 05:53:41;;;;;;;7.70;1.55;;;;;;;;;;4992155;28;20045;-65
2023/08/21 05:56:08;;;;;;;3.35;1.50;;;;;;;;;;4991641;28;20745;-65
2023/08/21 05:58:34;;;;;;;4.07;1.85;;;;;;;;;;4992895;28;20089;-65
2023/08/21 06:01:00;;;;;;;8.95;2.30;;;;;;;;;;4992746;28;20613;-65
2023/08/21 06:03:26;;;;;;;6.13;2.60;;;;;;;;;;4991905;28;20603;-65
2023/08/21 06:05:52;;;;;;;7.47;2.35;;;;;;;;;;4992390;28;20049;-66
2023/08/21 06:08:18;;;;;;;7.32;2.45;;;;;;;;;;4991745;28;20084;-66
2023/08/21 06:10:44;;;;;;;4.97;1.92;;;;;;;;;;4991601;28;20064;-66
2023/08/21 06:13:10;;;;;;;6.20;2.22;;;;;;;;;;4990658;28;20034;-66
2023/08/21 06:15:36;;;;;;;6.05;2.60;;;;;;;;;;4992151;28;20081;-66
2023/08/21 06:18:05;;;;;;;5.85;2.75;;;;;;;;;;4972632;28;20081;-66
2023/08/21 06:20:31;;;;;;;9.43;2.90;;;;;;;;;;4992312;28;20109;-66
2023/08/21 06:22:57;;;;;;;4.75;2.03;;;;;;;;;;4991873;28;20164;-66
2023/08/21 06:25:23;;;;;;;7.65;2.70;;;;;;;;;;4990389;28;20032;-66
2023/08/21 06:27:49;;;;;;;5.28;2.25;;;;;;;;;;4991199;28;20048;-66
2023/08/21 06:30:16;;;;;;;10.93;3.00;;;;;;;;;;4991157;28;20034;-66
2023/08/21 06:32:42;;;;;;;11.18;2.90;;;;;;;;;;4991473;28;20092;-66
2023/08/21 06:35:09;;;;;;;6.00;2.20;;;;;;;;;;4992030;28;20388;-66
2023/08/21 06:37:35;;;;;;;6.22;2.35;;;;;;;;;;4992362;28;20041;-66
2023/08/21 06:40:01;;;;;;;8.85;2.35;;;;;;;;;;4991891;28;20060;-66
2023/08/21 06:42:27;;;;;;;10.13;2.42;;;;;;;;;;4991488;28;20059;-66
2023/08/21 06:44:53;;;;;;;8.75;2.50;;;;;;;;;;4990673;28;20033;-66
2023/08/21 06:47:19;;;;;;;8.32;2.67;;;;;;;;;;4991469;28;20030;-66
2023/08/21 06:49:46;;;;;;;6.93;2.33;;;;;;;;;;4992815;28;20119;-66
2023/08/21 06:52:12;;;;;;;8.35;2.22;;;;;;;;;;4990891;28;20034;-66
2023/08/21 06:54:38;;;;;;;7.55;2.05;;;;;;;;;;4989777;28;20084;-66
2023/08/21 06:57:04;;;;;;;10.43;2.40;;;;;;;;;;4991207;28;20108;-66
2023/08/21 06:59:30;;;;;;;4.43;1.98;;;;;;;;;;4990738;28;20062;-67
2023/08/21 07:01:56;;;;;;;7.18;2.13;;;;;;;;;;4988303;28;20070;-66
2023/08/21 07:04:22;;;;;;;7.55;2.42;;;;;;;;;;4991810;28;20038;-66
2023/08/21 07:06:48;;;;;;;8.55;2.20;;;;;;;;;;4990810;28;20041;-66
2023/08/21 07:09:14;;;;;;;7.22;2.08;;;;;;;;;;4988831;28;20849;-66
2023/08/21 07:11:40;;;;;;;9.77;2.80;;;;;;;;;;4991835;28;20132;-66
2023/08/21 07:14:06;;;;;;;8.07;2.00;;;;;;;;;;4991185;28;20068;-66
2023/08/21 07:16:32;;;;;;;5.78;1.70;;;;;;;;;;4990961;28;21861;-66
2023/08/21 07:18:58;;;;;;;6.90;1.52;;;;;;;;;;4991727;28;20025;-66
2023/08/21 07:21:24;;;;;;;8.95;2.00;;;;;;;;;;4990682;28;20040;-66
2023/08/21 07:23:51;;;;;;;8.73;1.50;;;;;;;;;;4990657;28;21251;-67
2023/08/21 07:26:17;;;;;;;6.75;2.03;;;;;;;;;;4989585;28;20038;-67
2023/08/21 07:28:43;;;;;;;8.18;1.98;;;;;;;;;;4990480;28;20044;-67
2023/08/21 07:31:09;;;;;;;5.72;1.45;;;;;;;;;;4991342;28;20400;-66
2023/08/21 07:33:35;;;;;;;6.88;1.65;;;;;;;;;;4990103;28;20029;-66
2023/08/21 07:36:02;;;;;;;6.75;1.38;;;;;;;;;;4990045;28;20038;-67
2023/08/21 07:38:28;;;;;;;6.40;1.55;;;;;;;;;;4990618;28;20033;-67
2023/08/21 07:41:08;;;;;;;4.60;1.23;;;;;;;;;;4989502;28;20057;-66
2023/08/21 07:43:34;;;;;;;5.70;1.42;;;;;;;;;;4987302;28;20038;-67
2023/08/21 07:46:04;;;;;;;6.22;1.23;;;;;;;;;;4988736;28;20029;-66
2023/08/21 07:48:30;;;;;;;5.75;1.45;;;;;;;;;;4985130;28;20030;-67
2023/08/21 07:50:57;;;;;;;6.15;1.70;;;;;;;;;;4988463;28;20036;-67
2023/08/21 07:53:23;;;;;;;5.35;1.10;;;;;;;;;;4985851;28;20538;-67
2023/08/21 07:55:49;;;;;;;5.07;1.17;;;;;;;;;;4987218;28;20077;-66
2023/08/21 07:58:15;;;;;;;4.78;1.00;;;;;;;;;;4990345;28;21888;-67
2023/08/21 08:00:42;;;;;;;6.47;1.20;;;;;;;;;;4989482;28;20128;-66
2023/08/21 08:03:08;;;;;;;7.68;1.58;;;;;;;;;;4988899;28;20060;-66
2023/08/21 08:05:35;;;;;;;6.28;1.05;;;;;;;;;;4989040;28;20179;-66
2023/08/21 08:08:01;;;;;;;3.55;1.20;;;;;;;;;;4988523;28;20072;-66
2023/08/21 08:10:27;;;;;;;8.30;1.60;;;;;;;;;;4988447;28;20048;-67
2023/08/21 08:12:54;;;;;;;5.05;1.10;;;;;;;;;;4988877;28;20080;-67
2023/08/21 08:15:20;;;;;;;6.60;1.20;;;;;;;;;;4989796;28;20072;-66
2023/08/21 08:17:46;;;;;;;6.05;1.00;;;;;;;;;;4988267;28;20504;-66
2023/08/21 08:20:12;;;;;;;5.15;1.10;;;;;;;;;;4989351;28;20422;-67
2023/08/21 08:22:39;;;;;;;4.95;1.05;;;;;;;;;;4986316;28;20111;-67
2023/08/21 08:25:06;;;;;;;6.65;1.30;;;;;;;;;;4989477;28;20049;-66
2023/08/21 08:27:32;;;;;;;5.20;1.33;;;;;;;;;;4989845;28;20399;-67
2023/08/21 08:29:58;;;;;;;4.70;1.27;;;;;;;;;;4987523;28;20033;-66
2023/08/21 08:32:26;;;;;;;5.18;1.08;;;;;;;;;;4988239;28;20033;-67
2023/08/21 08:34:52;;;;;;;5.63;1.58;;;;;;;;;;4987396;28;20850;-66
2023/08/21 08:37:19;;;;;;;5.03;1.45;;;;;;;;;;4990075;28;20033;-66
2023/08/21 08:39:47;;;;;;;6.57;1.50;;;;;;;;;;4988998;28;20030;-66
2023/08/21 08:42:14;;;;;;;5.40;1.08;;;;;;;;;;4989305;28;20049;-66
2023/08/21 08:44:41;;;;;;;7.45;1.30;;;;;;;;;;4990073;28;20041;-66
2023/08/21 08:47:07;;;;;;;4.43;1.20;;;;;;;;;;4988915;28;20128;-66
2023/08/21 08:49:33;;;;;;;5.90;1.63;;;;;;;;;;4989275;28;20037;-66
2023/08/21 08:52:00;;;;;;;4.75;1.20;;;;;;;;;;4989575;28;20088;-66
2023/08/21 08:54:27;;;;;;;5.43;1.60;;;;;;;;;;4989336;28;20043;-66
2023/08/21 08:56:53;;;;;;;6.70;1.20;;;;;;;;;;4985505;28;20053;-67
2023/08/21 08:59:20;;;;;;;3.20;0.88;;;;;;;;;;4988230;28;20042;-67
2023/08/21 09:01:46;;;;;;;6.18;1.17;;;;;;;;;;4988579;28;20026;-67
2023/08/21 09:04:12;;;;;;;4.57;1.10;;;;;;;;;;4988382;28;20030;-67
2023/08/21 09:06:39;;;;;;;5.40;1.20;;;;;;;;;;4989513;28;20045;-67
2023/08/21 09:09:05;;;;;;;5.28;1.55;;;;;;;;;;4989557;28;20491;-67
2023/08/21 09:11:33;;;;;;;3.35;1.20;;;;;;;;;;4989223;28;20049;-67
2023/08/21 09:13:59;;;;;;;5.60;1.13;;;;;;;;;;4989146;28;20507;-67
2023/08/21 09:16:25;;;;;;;6.40;1.52;;;;;;;;;;4986672;28;20068;-67
2023/08/21 09:18:58;;;;;;;3.55;0.88;;;;;;;;;;4989689;28;20030;-67
2023/08/21 09:21:25;;;;;;;3.35;1.00;;;;;;;;;;4989670;28;20060;-67
2023/08/21 09:23:57;;;;;;;2.78;1.00;;;;;;;;;;4989166;28;20030;-67
2023/08/21 09:26:23;;;;;;;5.40;1.40;;;;;;;;;;4992815;28;20034;-67
2023/08/21 09:28:50;;;;;;;4.20;0.98;;;;;;;;;;4993052;28;20065;-67
2023/08/21 09:31:17;;;;;;;3.67;1.08;;;;;;;;;;4990579;28;20042;-67
2023/08/21 09:33:43;;;;;;;5.78;1.55;;;;;;;;;;4992964;28;20041;-67
2023/08/21 09:36:12;;;;;;;4.93;1.50;;;;;;;;;;4992557;28;20088;-67
2023/08/21 09:38:46;;;;;;;6.35;1.75;;;;;;;;;;4992068;28;20696;-67
2023/08/21 09:41:15;;;;;;;5.63;1.80;;;;;;;;;;4992595;28;20026;-67
2023/08/21 09:43:42;;;;;;;4.03;1.20;;;;;;;;;;4992127;28;20025;-67
2023/08/21 09:46:09;;;;;;;4.07;1.42;;;;;;;;;;4991585;28;20034;-67
2023/08/21 09:48:35;;;;;;;4.60;1.30;;;;;;;;;;4992482;28;20040;-67
2023/08/21 09:51:04;;;;;;;4.22;1.33;;;;;;;;;;4992505;28;20030;-67
2023/08/21 09:53:30;;;;;;;6.30;1.50;;;;;;;;;;4991886;28;20152;-67
2023/08/21 09:55:56;;;;;;;4.97;1.35;;;;;;;;;;4972549;28;20037;-67
2023/08/21 09:58:22;;;;;;;5.30;1.60;;;;;;;;;;4990487;28;20029;-67
2023/08/21 10:00:49;;;;;;;3.92;1.23;;;;;;;;;;4991391;28;20025;-67
2023/08/21 10:03:18;;;;;;;4.53;1.08;;;;;;;;;;4990594;28;20045;-67
2023/08/21 10:05:45;;;;;;;7.75;1.60;;;;;;;;;;4990442;28;20033;-67
2023/08/21 10:08:12;;;;;;;4.80;1.17;;;;;;;;;;4980518;28;20026;-67
2023/08/21 10:10:39;;;;;;;4.90;1.20;;;;;;;;;;4991448;28;20050;-68
2023/08/21 10:13:05;;;;;;;5.20;1.48;;;;;;;;;;4990851;28;20708;-67
2023/08/21 10:15:33;;;;;;;5.10;1.27;;;;;;;;;;4980696;28;20038;-68
2023/08/21 10:18:17;;;;;;;6.38;1.50;;;;;;;;;;4991977;28;20816;-68
2023/08/21 10:20:44;;;;;;;6.88;1.33;;;;;;;;;;4992392;28;20029;-68
2023/08/21 10:23:10;;;;;;;3.70;1.30;;;;;;;;;;4992350;28;20025;-68
2023/08/21 10:25:42;;;;;;;5.13;1.65;;;;;;;;;;4991203;28;20061;-68
2023/08/21 10:28:08;;;;;;;7.53;2.00;;;;;;;;;;4991053;28;20477;-68
2023/08/21 10:30:34;;;;;;;5.75;1.65;;;;;;;;;;4990652;28;20762;-68
2023/08/21 10:33:00;;;;;;;6.20;1.33;;;;;;;;;;4992213;28;20050;-68
2023/08/21 10:35:34;;;;;;;7.63;1.60;;;;;;;;;;4990719;28;20041;-67
2023/08/21 10:38:07;;;;;;;4.30;1.38;;;;;;;;;;4982729;28;20034;-67
2023/08/21 10:40:33;;;;;;;5.07;1.38;;;;;;;;;;4966080;28;20030;-68
2023/08/21 10:43:03;;;;;;;5.30;1.35;;;;;;;;;;4983682;28;20073;-67
2023/08/21 10:45:29;;;;;;;4.20;1.20;;;;;;;;;;4984361;28;20114;-68
2023/08/21 10:48:01;;;;;;;4.47;1.40;;;;;;;;;;4984850;28;20777;-68
2023/08/21 10:50:27;;;;;;;6.15;1.42;;;;;;;;;;4985070;28;20161;-68
2023/08/21 10:52:53;;;;;;;3.97;1.17;;;;;;;;;;4984895;28;20107;-68
2023/08/21 10:55:20;;;;;;;3.97;1.52;;;;;;;;;;4984981;28;20049;-68
2023/08/21 10:57:50;;;;;;;5.10;1.33;;;;;;;;;;4984294;28;20080;-68
2023/08/21 11:00:17;;;;;;;3.35;1.27;;;;;;;;;;4983659;28;20124;-68
2023/08/21 11:02:44;;;;;;;6.25;1.55;;;;;;;;;;4982384;28;20191;-68
2023/08/21 11:05:10;;;;;;;4.47;1.25;;;;;;;;;;4983401;28;20030;-68
2023/08/21 11:07:38;;;;;;;4.95;1.30;;;;;;;;;;4983101;28;20555;-68
2023/08/21 11:10:05;;;;;;;4.13;1.40;;;;;;;;;;4982675;28;20144;-68
2023/08/21 11:12:31;;;;;;;5.80;1.58;;;;;;;;;;4984376;28;20030;-68
2023/08/21 11:14:57;;;;;;;5.50;1.65;;;;;;;;;;4983585;28;20029;-68
2023/08/21 11:17:23;;;;;;;5.53;1.25;;;;;;;;;;4965691;28;20041;-68
2023/08/21 11:19:50;;;;;;;3.75;1.38;;;;;;;;;;4984451;28;20042;-68
2023/08/21 11:22:16;;;;;;;5.85;1.35;;;;;;;;;;4983669;28;20029;-68
2023/08/21 11:24:43;;;;;;;6.15;1.67;;;;;;;;;;4982945;28;20683;-68
2023/08/21 11:27:12;;;;;;;4.45;1.13;;;;;;;;;;4984416;28;20046;-68
2023/08/21 11:29:48;;;;;;;5.20;1.45;;;;;;;;;;4984476;28;20071;-68
2023/08/21 11:32:15;;;;;;;6.15;1.45;;;;;;;;;;4982098;28;20033;-68
2023/08/21 11:34:49;;;;;;;7.18;1.58;;;;;;;;;;4966245;28;20117;-68
2023/08/21 11:37:17;;;;;;;4.80;1.48;;;;;;;;;;4984643;28;20135;-67
2023/08/21 11:39:51;;;;;;;5.57;1.35;;;;;;;;;;4983149;28;20036;-68
2023/08/21 11:42:17;;;;;;;4.78;1.23;;;;;;;;;;4983306;28;20069;-68
2023/08/21 11:44:48;;;;;;;5.72;1.23;;;;;;;;;;4984013;28;20033;-68
2023/08/21 11:47:14;;;;;;;3.80;1.20;;;;;;;;;;4982317;28;20034;-68
2023/08/21 11:49:42;;;;;;;4.25;1.38;;;;;;;;;;4983766;28;20034;-68
2023/08/21 11:52:08;;;;;;;6.93;1.60;;;;;;;;;;4983507;28;20771;-68
2023/08/21 11:54:36;;;;;;;5.30;1.33;;;;;;;;;;4983931;28;21036;-68
2023/08/21 11:57:04;;;;;;;4.72;1.10;;;;;;;;;;4983096;28;20034;-68
2023/08/21 11:59:30;;;;;;;7.57;1.60;;;;;;;;;;4982987;28;20029;-68
2023/08/21 12:01:57;;;;;;;6.63;1.63;;;;;;;;;;4984115;28;20034;-67
2023/08/21 12:04:23;;;;;;;4.80;1.25;;;;;;;;;;4983490;28;20034;-68
2023/08/21 12:06:49;;;;;;;9.73;1.80;;;;;;;;;;4981753;28;20037;-68
2023/08/21 12:09:15;;;;;;;5.47;1.20;;;;;;;;;;4980250;28;20030;-68
2023/08/21 12:11:41;;;;;;;4.18;1.10;;;;;;;;;;4982155;28;20719;-68
2023/08/21 12:14:07;;;;;;;6.53;1.58;;;;;;;;;;4981627;28;21077;-68
2023/08/21 12:16:33;;;;;;;9.25;1.42;;;;;;;;;;4982016;28;20488;-68
2023/08/21 12:18:59;;;;;;;4.30;1.15;;;;;;;;;;4984455;28;20519;-68
2023/08/21 12:21:26;;;;;;;7.20;1.63;;;;;;;;;;4983749;28;20037;-68
2023/08/21 12:23:52;;;;;;;6.57;1.35;;;;;;;;;;4983318;28;20084;-68
2023/08/21 12:26:21;;;;;;;4.53;1.35;;;;;;;;;;4982175;28;20042;-68
2023/08/21 12:28:50;;;;;;;6.90;1.48;;;;;;;;;;4984460;28;20033;-68
2023/08/21 12:31:19;;;;;;;6.13;1.15;;;;;;;;;;4983807;28;20048;-68
2023/08/21 12:33:45;;;;;;;7.10;1.40;;;;;;;;;;4983411;28;20038;-68
2023/08/21 12:36:11;;;;;;;6.25;1.30;;;;;;;;;;4984285;28;20056;-68
2023/08/21 12:38:37;;;;;;;17.33;1.80;;;;;;;;;;4982167;28;20937;-68
2023/08/21 12:41:03;;;;;;;7.93;1.10;;;;;;;;;;4982561;28;20029;-68
2023/08/21 12:43:32;;;;;;;4.28;1.55;;;;;;;;;;4983068;28;20030;-68
2023/08/21 12:45:58;;;;;;;7.95;1.88;;;;;;;;;;4983617;28;20099;-68
2023/08/21 12:48:24;;;;;;;7.60;1.83;;;;;;;;;;4983546;28;20030;-67
2023/08/21 12:50:52;;;;;;;5.00;1.40;;;;;;;;;;4980088;28;20041;-68
2023/08/21 12:53:19;;;;;;;5.07;1.27;;;;;;;;;;4978757;28;20038;-68
2023/08/21 12:55:45;;;;;;;6.60;1.30;;;;;;;;;;4973033;28;20038;-70
2023/08/21 12:58:13;;;;;;;5.28;1.10;;;;;;;;;;4981130;28;20485;-68
2023/08/21 13:00:39;;;;;;;4.75;1.10;;;;;;;;;;4973116;28;20042;-68
2023/08/21 13:03:05;;;;;;;4.35;0.95;;;;;;;;;;4983331;28;20037;-68
2023/08/21 13:05:31;;;;;;;4.78;1.00;;;;;;;;;;4983752;28;21377;-68
2023/08/21 13:07:58;;;;;;;5.25;1.15;;;;;;;;;;4982372;28;20127;-68
2023/08/21 13:10:24;;;;;;;5.00;1.10;;;;;;;;;;4983340;28;20053;-68
2023/08/21 13:12:51;;;;;;;4.05;0.98;;;;;;;;;;4985137;28;20040;-67
2023/08/21 13:15:17;;;;;;;5.57;1.05;;;;;;;;;;4985757;28;20069;-68
2023/08/21 13:17:43;;;;;;;3.28;0.90;;;;;;;;;;4984336;28;21829;-68
2023/08/21 13:20:13;;;;;;;4.80;1.10;;;;;;;;;;4985447;28;20467;-68
2023/08/21 13:22:49;;;;;;;2.28;0.80;;;;;;;;;;4983244;28;20130;-68
2023/08/21 13:25:24;;;;;;;4.68;0.85;;;;;;;;;;4983602;28;20052;-68
2023/08/21 13:27:51;;;;;;;5.15;1.05;;;;;;;;;;4986170;28;20701;-68
2023/08/21 13:30:17;;;;;;;5.53;1.45;;;;;;;;;;4985638;28;20159;-68
2023/08/21 13:32:43;;;;;;;4.72;1.13;;;;;;;;;;4967581;28;20034;-68
2023/08/21 13:35:10;;;;;;;3.53;0.80;;;;;;;;;;4984609;28;20029;-68
2023/08/21 13:37:37;;;;;;;5.25;1.02;;;;;;;;;;4983025;28;20488;-68
2023/08/21 13:40:10;;;;;;;2.85;0.80;;;;;;;;;;4985431;28;20459;-68
2023/08/21 13:42:40;;;;;;;3.05;0.65;;;;;;;;;;4985363;28;20029;-68
2023/08/21 13:45:08;;;;;;;3.38;0.93;;;;;;;;;;4984580;28;20145;-68
2023/08/21 13:47:34;;;;;;;2.85;0.82;;;;;;;;;;4984648;28;20149;-68
2023/08/21 13:50:00;;;;;;;2.97;0.80;;;;;;;;;;4985040;28;20029;-68
2023/08/21 13:52:26;;;;;;;2.55;0.68;;;;;;;;;;4982473;28;20033;-68
2023/08/21 13:54:52;;;;;;;1.50;0.60;;;;;;;;;;4982921;28;20117;-68
2023/08/21 13:57:18;;;;;;;5.88;1.10;;;;;;;;;;4984266;28;20990;-68
2023/08/21 13:59:44;;;;;;;4.47;0.80;;;;;;;;;;4983563;28;20026;-68
2023/08/21 14:02:10;;;;;;;6.00;0.98;;;;;;;;;;4981915;28;20083;-68
2023/08/21 14:04:37;;;;;;;2.80;0.60;;;;;;;;;;4984176;28;20025;-68
2023/08/21 14:07:03;;;;;;;3.90;0.88;;;;;;;;;;4985720;28;20041;-68
2023/08/21 14:09:29;;;;;;;7.53;1.80;;;;;;;;;;4983261;28;20049;-68
2023/08/21 14:11:55;;;;;;;3.38;0.90;;;;;;;;;;5001582;28;20056;-68
2023/08/21 14:14:21;;;;;;;4.53;1.08;;;;;;;;;;5005534;28;20034;-68
2023/08/21 14:16:47;;;;;;;7.03;1.20;;;;;;;;;;5004946;28;20033;-68
2023/08/21 14:19:13;;;;;;;4.22;1.10;;;;;;;;;;5002920;28;20037;-68
2023/08/21 14:21:39;;;;;;;3.95;0.95;;;;;;;;;;5000921;28;20038;-68
2023/08/21 14:24:07;;;;;;;3.67;0.95;;;;;;;;;;4991761;28;20079;-68
2023/08/21 14:26:33;;;;;;;5.20;1.13;;;;;;;;;;5001610;28;20049;-68
2023/08/21 14:28:59;;;;;;;3.22;0.80;;;;;;;;;;5003096;28;20037;-68
2023/08/21 14:31:27;;;;;;;4.53;1.10;;;;;;;;;;5001353;28;20032;-68
2023/08/21 14:33:53;;;;;;;5.70;1.08;;;;;;;;;;5004492;28;20084;-68
2023/08/21 14:36:19;;;;;;;3.10;0.98;;;;;;;;;;5001438;28;20487;-68
2023/08/21 14:38:45;;;;;;;5.80;1.27;;;;;;;;;;4999897;28;20029;-68
2023/08/21 14:41:11;;;;;;;3.78;0.90;;;;;;;;;;5003319;28;20033;-68